sensor_id;sensor_type;location;lat;lon;timestamp;P1;durP1;ratioP1;P2;durP2;ratioP2
22965;SDS011;11649;48.090;9.754;2024-03-22T00:03:28;12.25;;;6.60;;
22965;SDS011;11649;48.090;9.754;2024-03-22T00:05:54;9.75;;;6.88;;
22965;SDS011;11649;48.090;9.754;2024-03-22T00:08:20;8.55;;;6.18;;
22965;SDS011;11649;48.090;9.754;2024-03-22T00:10:46;9.98;;;6.32;;
22965;SDS011;11649;48.090;9.754;2024-03-22T00:13:12;10.10;;;6.72;;
22965;SDS011;11649;48.090;9.754;2024-03-22T00:15:38;10.48;;;6.88;;
22965;SDS011;11649;48.090;9.754;2024-03-22T00:18:04;12.73;;;7.15;;
22965;SDS011;11649;48.090;9.754;2024-03-22T00:20:32;9.07;;;6.32;;
22965;SDS011;11649;48.090;9.754;2024-03-22T00:23:00;9.48;;;6.10;;
22965;SDS011;11649;48.090;9.754;2024-03-22T00:25:25;7.80;;;5.95;;
22965;SDS011;11649;48.090;9.754;2024-03-22T00:27:51;8.50;;;6.00;;
22965;SDS011;11649;48.090;9.754;2024-03-22T00:30:17;9.20;;;6.45;;
22965;SDS011;11649;48.090;9.754;2024-03-22T00:32:43;10.43;;;6.85;;
22965;SDS011;11649;48.090;9.754;2024-03-22T00:35:10;9.20;;;6.35;;
22965;SDS011;11649;48.090;9.754;2024-03-22T00:37:36;8.30;;;6.10;;
22965;SDS011;11649;48.090;9.754;2024-03-22T00:40:01;11.35;;;6.85;;
22965;SDS011;11649;48.090;9.754;2024-03-22T00:42:28;10.27;;;6.35;;
22965;SDS011;11649;48.090;9.754;2024-03-22T00:44:53;10.60;;;5.55;;
22965;SDS011;11649;48.090;9.754;2024-03-22T00:47:20;8.80;;;6.32;;
22965;SDS011;11649;48.090;9.754;2024-03-22T00:49:46;9.27;;;6.25;;
22965;SDS011;11649;48.090;9.754;2024-03-22T00:52:12;9.68;;;6.75;;
22965;SDS011;11649;48.090;9.754;2024-03-22T00:54:37;7.63;;;5.30;;
22965;SDS011;11649;48.090;9.754;2024-03-22T00:57:30;8.32;;;6.07;;
22965;SDS011;11649;48.090;9.754;2024-03-22T01:00:02;8.05;;;5.80;;
22965;SDS011;11649;48.090;9.754;2024-03-22T01:02:35;9.60;;;6.30;;
22965;SDS011;11649;48.090;9.754;2024-03-22T01:05:54;10.10;;;6.70;;
22965;SDS011;11649;48.090;9.754;2024-03-22T01:08:29;8.90;;;6.38;;
22965;SDS011;11649;48.090;9.754;2024-03-22T01:11:06;8.13;;;6.35;;
22965;SDS011;11649;48.090;9.754;2024-03-22T01:13:39;9.55;;;6.40;;
22965;SDS011;11649;48.090;9.754;2024-03-22T01:19:02;9.77;;;6.78;;
22965;SDS011;11649;48.090;9.754;2024-03-22T01:21:37;10.38;;;6.20;;
22965;SDS011;11649;48.090;9.754;2024-03-22T01:30:38;12.15;;;6.22;;
22965;SDS011;11649;48.090;9.754;2024-03-22T01:33:25;10.43;;;6.63;;
22965;SDS011;11649;48.090;9.754;2024-03-22T01:35:56;9.27;;;6.00;;
22965;SDS011;11649;48.090;9.754;2024-03-22T01:43:43;10.15;;;6.10;;
22965;SDS011;11649;48.090;9.754;2024-03-22T01:46:30;8.32;;;6.22;;
22965;SDS011;11649;48.090;9.754;2024-03-22T01:48:59;7.57;;;5.43;;
22965;SDS011;11649;48.090;9.754;2024-03-22T01:51:31;8.93;;;5.90;;
22965;SDS011;11649;48.090;9.754;2024-03-22T01:54:30;8.50;;;5.88;;
22965;SDS011;11649;48.090;9.754;2024-03-22T02:00:02;9.27;;;6.10;;
22965;SDS011;11649;48.090;9.754;2024-03-22T02:02:47;8.32;;;5.60;;
22965;SDS011;11649;48.090;9.754;2024-03-22T02:05:22;10.38;;;5.57;;
22965;SDS011;11649;48.090;9.754;2024-03-22T02:08:00;8.52;;;5.28;;
22965;SDS011;11649;48.090;9.754;2024-03-22T02:10:26;7.03;;;5.22;;
22965;SDS011;11649;48.090;9.754;2024-03-22T02:12:52;7.82;;;5.53;;
22965;SDS011;11649;48.090;9.754;2024-03-22T02:15:43;8.35;;;5.65;;
22965;SDS011;11649;48.090;9.754;2024-03-22T02:23:38;7.72;;;5.22;;
22965;SDS011;11649;48.090;9.754;2024-03-22T02:26:31;8.85;;;6.05;;
22965;SDS011;11649;48.090;9.754;2024-03-22T02:29:03;9.13;;;5.70;;
22965;SDS011;11649;48.090;9.754;2024-03-22T02:31:40;6.95;;;4.97;;
22965;SDS011;11649;48.090;9.754;2024-03-22T02:34:06;8.73;;;4.43;;
22965;SDS011;11649;48.090;9.754;2024-03-22T02:36:32;8.40;;;4.78;;
22965;SDS011;11649;48.090;9.754;2024-03-22T02:38:58;8.65;;;4.90;;
22965;SDS011;11649;48.090;9.754;2024-03-22T02:41:23;7.30;;;4.75;;
22965;SDS011;11649;48.090;9.754;2024-03-22T02:43:49;7.30;;;5.20;;
22965;SDS011;11649;48.090;9.754;2024-03-22T02:46:15;11.32;;;5.30;;
22965;SDS011;11649;48.090;9.754;2024-03-22T02:48:41;8.27;;;5.32;;
22965;SDS011;11649;48.090;9.754;2024-03-22T02:51:07;9.20;;;5.90;;
22965;SDS011;11649;48.090;9.754;2024-03-22T02:53:34;12.70;;;5.65;;
22965;SDS011;11649;48.090;9.754;2024-03-22T02:56:00;7.78;;;5.63;;
22965;SDS011;11649;48.090;9.754;2024-03-22T02:58:26;8.50;;;5.53;;
22965;SDS011;11649;48.090;9.754;2024-03-22T03:00:52;6.53;;;5.07;;
22965;SDS011;11649;48.090;9.754;2024-03-22T03:03:18;6.88;;;4.80;;
22965;SDS011;11649;48.090;9.754;2024-03-22T03:05:43;5.60;;;4.15;;
22965;SDS011;11649;48.090;9.754;2024-03-22T03:08:09;6.75;;;4.63;;
22965;SDS011;11649;48.090;9.754;2024-03-22T03:10:35;7.55;;;4.80;;
22965;SDS011;11649;48.090;9.754;2024-03-22T03:13:01;5.53;;;4.28;;
22965;SDS011;11649;48.090;9.754;2024-03-22T03:15:27;8.32;;;5.60;;
22965;SDS011;11649;48.090;9.754;2024-03-22T03:17:54;9.27;;;5.65;;
22965;SDS011;11649;48.090;9.754;2024-03-22T03:20:20;8.25;;;5.00;;
22965;SDS011;11649;48.090;9.754;2024-03-22T03:22:45;7.20;;;5.10;;
22965;SDS011;11649;48.090;9.754;2024-03-22T03:25:20;8.57;;;5.10;;
22965;SDS011;11649;48.090;9.754;2024-03-22T03:28:05;6.90;;;5.22;;
22965;SDS011;11649;48.090;9.754;2024-03-22T03:30:38;6.85;;;5.10;;
22965;SDS011;11649;48.090;9.754;2024-03-22T03:33:08;7.55;;;4.88;;
22965;SDS011;11649;48.090;9.754;2024-03-22T03:35:46;7.88;;;5.05;;
22965;SDS011;11649;48.090;9.754;2024-03-22T03:38:27;6.95;;;4.63;;
22965;SDS011;11649;48.090;9.754;2024-03-22T03:41:14;7.32;;;4.93;;
22965;SDS011;11649;48.090;9.754;2024-03-22T03:43:49;6.80;;;4.72;;
22965;SDS011;11649;48.090;9.754;2024-03-22T03:46:24;6.30;;;4.85;;
22965;SDS011;11649;48.090;9.754;2024-03-22T03:51:41;7.80;;;5.28;;
22965;SDS011;11649;48.090;9.754;2024-03-22T03:54:30;6.20;;;4.32;;
22965;SDS011;11649;48.090;9.754;2024-03-22T03:56:56;6.78;;;4.90;;
22965;SDS011;11649;48.090;9.754;2024-03-22T04:02:19;6.75;;;4.40;;
22965;SDS011;11649;48.090;9.754;2024-03-22T04:04:46;7.03;;;4.20;;
22965;SDS011;11649;48.090;9.754;2024-03-22T04:07:21;6.65;;;4.60;;
22965;SDS011;11649;48.090;9.754;2024-03-22T04:09:50;7.68;;;4.82;;
22965;SDS011;11649;48.090;9.754;2024-03-22T04:12:49;7.15;;;5.00;;
22965;SDS011;11649;48.090;9.754;2024-03-22T04:15:17;5.03;;;3.20;;
22965;SDS011;11649;48.090;9.754;2024-03-22T04:17:49;8.18;;;4.55;;
22965;SDS011;11649;48.090;9.754;2024-03-22T04:23:27;6.00;;;4.28;;
22965;SDS011;11649;48.090;9.754;2024-03-22T04:25:59;5.93;;;4.15;;
22965;SDS011;11649;48.090;9.754;2024-03-22T04:28:35;6.10;;;4.45;;
22965;SDS011;11649;48.090;9.754;2024-03-22T04:31:16;8.63;;;4.85;;
22965;SDS011;11649;48.090;9.754;2024-03-22T04:33:57;6.30;;;4.20;;
22965;SDS011;11649;48.090;9.754;2024-03-22T04:36:23;4.10;;;3.45;;
22965;SDS011;11649;48.090;9.754;2024-03-22T04:38:55;5.32;;;3.92;;
22965;SDS011;11649;48.090;9.754;2024-03-22T04:41:24;8.93;;;4.32;;
22965;SDS011;11649;48.090;9.754;2024-03-22T04:43:58;5.68;;;4.32;;
22965;SDS011;11649;48.090;9.754;2024-03-22T04:46:24;6.90;;;4.93;;
22965;SDS011;11649;48.090;9.754;2024-03-22T04:48:56;6.10;;;4.47;;
22965;SDS011;11649;48.090;9.754;2024-03-22T04:51:22;7.00;;;4.40;;
22965;SDS011;11649;48.090;9.754;2024-03-22T04:53:51;6.32;;;4.53;;
22965;SDS011;11649;48.090;9.754;2024-03-22T04:56:17;7.53;;;4.47;;
22965;SDS011;11649;48.090;9.754;2024-03-22T04:58:42;7.15;;;3.92;;
22965;SDS011;11649;48.090;9.754;2024-03-22T05:01:08;9.82;;;3.95;;
22965;SDS011;11649;48.090;9.754;2024-03-22T05:03:34;6.55;;;4.50;;
22965;SDS011;11649;48.090;9.754;2024-03-22T05:06:00;7.05;;;4.30;;
22965;SDS011;11649;48.090;9.754;2024-03-22T05:08:28;7.57;;;4.85;;
22965;SDS011;11649;48.090;9.754;2024-03-22T05:10:54;6.40;;;4.85;;
22965;SDS011;11649;48.090;9.754;2024-03-22T05:13:23;7.22;;;4.53;;
22965;SDS011;11649;48.090;9.754;2024-03-22T05:15:51;6.57;;;4.60;;
22965;SDS011;11649;48.090;9.754;2024-03-22T05:18:27;10.20;;;5.00;;
22965;SDS011;11649;48.090;9.754;2024-03-22T05:20:54;10.75;;;5.15;;
22965;SDS011;11649;48.090;9.754;2024-03-22T05:23:23;9.65;;;5.18;;
22965;SDS011;11649;48.090;9.754;2024-03-22T05:25:48;7.00;;;5.05;;
22965;SDS011;11649;48.090;9.754;2024-03-22T05:28:20;6.97;;;5.00;;
22965;SDS011;11649;48.090;9.754;2024-03-22T05:30:46;8.05;;;4.43;;
22965;SDS011;11649;48.090;9.754;2024-03-22T05:33:32;12.77;;;4.82;;
22965;SDS011;11649;48.090;9.754;2024-03-22T05:36:01;9.40;;;5.38;;
22965;SDS011;11649;48.090;9.754;2024-03-22T05:38:28;8.63;;;5.68;;
22965;SDS011;11649;48.090;9.754;2024-03-22T05:41:03;7.72;;;5.50;;
22965;SDS011;11649;48.090;9.754;2024-03-22T05:43:32;10.32;;;5.72;;
22965;SDS011;11649;48.090;9.754;2024-03-22T05:46:01;7.05;;;5.00;;
22965;SDS011;11649;48.090;9.754;2024-03-22T05:48:27;12.50;;;6.38;;
22965;SDS011;11649;48.090;9.754;2024-03-22T05:50:56;8.02;;;5.78;;
22965;SDS011;11649;48.090;9.754;2024-03-22T05:53:24;10.88;;;5.53;;
22965;SDS011;11649;48.090;9.754;2024-03-22T05:55:51;7.18;;;5.13;;
22965;SDS011;11649;48.090;9.754;2024-03-22T05:58:16;7.38;;;5.80;;
22965;SDS011;11649;48.090;9.754;2024-03-22T06:00:45;8.32;;;5.80;;
22965;SDS011;11649;48.090;9.754;2024-03-22T06:03:11;7.18;;;5.25;;
22965;SDS011;11649;48.090;9.754;2024-03-22T06:05:36;8.70;;;5.78;;
22965;SDS011;11649;48.090;9.754;2024-03-22T06:08:11;13.32;;;6.90;;
22965;SDS011;11649;48.090;9.754;2024-03-22T06:10:50;23.77;;;11.73;;
22965;SDS011;11649;48.090;9.754;2024-03-22T06:13:25;20.02;;;10.13;;
22965;SDS011;11649;48.090;9.754;2024-03-22T06:15:59;10.30;;;6.00;;
22965;SDS011;11649;48.090;9.754;2024-03-22T06:18:28;10.77;;;6.07;;
22965;SDS011;11649;48.090;9.754;2024-03-22T06:21:00;9.90;;;7.13;;
22965;SDS011;11649;48.090;9.754;2024-03-22T06:23:26;11.40;;;7.32;;
22965;SDS011;11649;48.090;9.754;2024-03-22T06:25:52;15.75;;;8.75;;
22965;SDS011;11649;48.090;9.754;2024-03-22T06:28:43;27.27;;;14.90;;
22965;SDS011;11649;48.090;9.754;2024-03-22T06:31:16;20.45;;;13.48;;
22965;SDS011;11649;48.090;9.754;2024-03-22T06:33:51;19.08;;;11.07;;
22965;SDS011;11649;48.090;9.754;2024-03-22T06:36:17;25.42;;;15.45;;
22965;SDS011;11649;48.090;9.754;2024-03-22T06:38:43;21.92;;;13.48;;
22965;SDS011;11649;48.090;9.754;2024-03-22T06:41:27;16.90;;;11.05;;
22965;SDS011;11649;48.090;9.754;2024-03-22T06:44:08;12.93;;;9.23;;
22965;SDS011;11649;48.090;9.754;2024-03-22T06:46:53;18.60;;;10.43;;
22965;SDS011;11649;48.090;9.754;2024-03-22T06:49:31;11.70;;;8.80;;
22965;SDS011;11649;48.090;9.754;2024-03-22T06:52:06;17.33;;;10.68;;
22965;SDS011;11649;48.090;9.754;2024-03-22T06:55:55;23.40;;;13.60;;
22965;SDS011;11649;48.090;9.754;2024-03-22T06:58:43;22.30;;;12.57;;
22965;SDS011;11649;48.090;9.754;2024-03-22T07:04:43;10.68;;;8.45;;
22965;SDS011;11649;48.090;9.754;2024-03-22T07:12:56;8.82;;;6.60;;
22965;SDS011;11649;48.090;9.754;2024-03-22T07:16:14;9.43;;;6.00;;
22965;SDS011;11649;48.090;9.754;2024-03-22T07:19:01;9.40;;;6.18;;
22965;SDS011;11649;48.090;9.754;2024-03-22T07:21:33;7.95;;;5.18;;
22965;SDS011;11649;48.090;9.754;2024-03-22T07:24:00;6.43;;;4.72;;
22965;SDS011;11649;48.090;9.754;2024-03-22T07:26:35;6.53;;;4.20;;
22965;SDS011;11649;48.090;9.754;2024-03-22T07:29:12;6.60;;;4.45;;
22965;SDS011;11649;48.090;9.754;2024-03-22T07:31:38;6.13;;;4.50;;
22965;SDS011;11649;48.090;9.754;2024-03-22T07:34:15;12.95;;;5.15;;
22965;SDS011;11649;48.090;9.754;2024-03-22T07:37:11;7.70;;;4.70;;
22965;SDS011;11649;48.090;9.754;2024-03-22T07:42:54;6.78;;;4.63;;
22965;SDS011;11649;48.090;9.754;2024-03-22T07:45:20;8.98;;;5.05;;
22965;SDS011;11649;48.090;9.754;2024-03-22T07:48:15;6.75;;;4.65;;
22965;SDS011;11649;48.090;9.754;2024-03-22T07:50:41;8.95;;;4.93;;
22965;SDS011;11649;48.090;9.754;2024-03-22T07:53:47;8.13;;;4.68;;
22965;SDS011;11649;48.090;9.754;2024-03-22T07:56:16;7.97;;;4.45;;
22965;SDS011;11649;48.090;9.754;2024-03-22T08:04:45;6.38;;;5.30;;
22965;SDS011;11649;48.090;9.754;2024-03-22T08:07:50;9.20;;;5.60;;
22965;SDS011;11649;48.090;9.754;2024-03-22T08:10:31;7.07;;;5.38;;
22965;SDS011;11649;48.090;9.754;2024-03-22T08:13:00;7.10;;;5.45;;
22965;SDS011;11649;48.090;9.754;2024-03-22T08:18:59;7.70;;;5.50;;
22965;SDS011;11649;48.090;9.754;2024-03-22T08:21:43;8.27;;;6.03;;
22965;SDS011;11649;48.090;9.754;2024-03-22T08:24:11;8.10;;;5.85;;
22965;SDS011;11649;48.090;9.754;2024-03-22T08:26:40;11.15;;;5.72;;
22965;SDS011;11649;48.090;9.754;2024-03-22T08:29:13;10.43;;;5.88;;
22965;SDS011;11649;48.090;9.754;2024-03-22T08:31:45;7.72;;;5.53;;
22965;SDS011;11649;48.090;9.754;2024-03-22T08:34:11;8.93;;;5.80;;
22965;SDS011;11649;48.090;9.754;2024-03-22T08:36:37;11.07;;;5.70;;
22965;SDS011;11649;48.090;9.754;2024-03-22T08:39:12;10.70;;;6.03;;
22965;SDS011;11649;48.090;9.754;2024-03-22T08:41:38;10.82;;;5.82;;
22965;SDS011;11649;48.090;9.754;2024-03-22T08:44:13;9.23;;;6.30;;
22965;SDS011;11649;48.090;9.754;2024-03-22T08:46:45;8.02;;;5.40;;
22965;SDS011;11649;48.090;9.754;2024-03-22T08:49:14;7.32;;;5.55;;
22965;SDS011;11649;48.090;9.754;2024-03-22T08:51:40;11.93;;;6.70;;
22965;SDS011;11649;48.090;9.754;2024-03-22T08:54:06;10.32;;;5.68;;
22965;SDS011;11649;48.090;9.754;2024-03-22T08:56:38;8.20;;;5.68;;
22965;SDS011;11649;48.090;9.754;2024-03-22T08:59:07;8.05;;;5.43;;
22965;SDS011;11649;48.090;9.754;2024-03-22T09:01:32;8.48;;;5.50;;
22965;SDS011;11649;48.090;9.754;2024-03-22T09:04:14;10.20;;;6.00;;
22965;SDS011;11649;48.090;9.754;2024-03-22T09:06:42;8.48;;;5.72;;
22965;SDS011;11649;48.090;9.754;2024-03-22T09:09:35;8.32;;;5.60;;
22965;SDS011;11649;48.090;9.754;2024-03-22T09:12:29;8.20;;;5.82;;
22965;SDS011;11649;48.090;9.754;2024-03-22T09:15:10;6.88;;;5.85;;
22965;SDS011;11649;48.090;9.754;2024-03-22T09:20:40;6.13;;;5.10;;
22965;SDS011;11649;48.090;9.754;2024-03-22T09:23:09;6.97;;;5.05;;
22965;SDS011;11649;48.090;9.754;2024-03-22T09:25:48;6.75;;;5.10;;
22965;SDS011;11649;48.090;9.754;2024-03-22T09:28:35;7.72;;;5.15;;
22965;SDS011;11649;48.090;9.754;2024-03-22T09:34:24;9.18;;;5.57;;
22965;SDS011;11649;48.090;9.754;2024-03-22T09:37:32;6.80;;;5.15;;
22965;SDS011;11649;48.090;9.754;2024-03-22T09:44:12;7.18;;;4.90;;
22965;SDS011;11649;48.090;9.754;2024-03-22T09:46:42;8.13;;;4.88;;
22965;SDS011;11649;48.090;9.754;2024-03-22T09:49:09;8.55;;;5.05;;
22965;SDS011;11649;48.090;9.754;2024-03-22T09:51:41;6.28;;;4.95;;
22965;SDS011;11649;48.090;9.754;2024-03-22T09:54:09;8.95;;;5.10;;
22965;SDS011;11649;48.090;9.754;2024-03-22T09:56:35;7.20;;;4.88;;
22965;SDS011;11649;48.090;9.754;2024-03-22T09:59:04;7.35;;;5.10;;
22965;SDS011;11649;48.090;9.754;2024-03-22T10:01:30;6.97;;;5.18;;
22965;SDS011;11649;48.090;9.754;2024-03-22T10:03:57;8.52;;;5.80;;
22965;SDS011;11649;48.090;9.754;2024-03-22T10:06:23;8.02;;;5.20;;
22965;SDS011;11649;48.090;9.754;2024-03-22T10:08:49;7.10;;;4.90;;
22965;SDS011;11649;48.090;9.754;2024-03-22T10:11:14;7.68;;;4.68;;
22965;SDS011;11649;48.090;9.754;2024-03-22T10:13:40;7.32;;;4.32;;
22965;SDS011;11649;48.090;9.754;2024-03-22T10:16:06;5.78;;;4.10;;
22965;SDS011;11649;48.090;9.754;2024-03-22T10:18:32;7.93;;;4.90;;
22965;SDS011;11649;48.090;9.754;2024-03-22T10:21:02;6.57;;;4.38;;
22965;SDS011;11649;48.090;9.754;2024-03-22T10:23:29;5.32;;;4.32;;
22965;SDS011;11649;48.090;9.754;2024-03-22T10:25:58;6.40;;;4.18;;
22965;SDS011;11649;48.090;9.754;2024-03-22T10:28:25;7.70;;;4.60;;
22965;SDS011;11649;48.090;9.754;2024-03-22T10:30:52;5.30;;;3.88;;
22965;SDS011;11649;48.090;9.754;2024-03-22T10:33:18;5.35;;;3.70;;
22965;SDS011;11649;48.090;9.754;2024-03-22T10:35:46;6.60;;;3.58;;
22965;SDS011;11649;48.090;9.754;2024-03-22T10:38:12;4.65;;;3.75;;
22965;SDS011;11649;48.090;9.754;2024-03-22T10:40:39;4.88;;;3.58;;
22965;SDS011;11649;48.090;9.754;2024-03-22T10:43:10;5.40;;;3.08;;
22965;SDS011;11649;48.090;9.754;2024-03-22T10:45:36;5.45;;;3.28;;
22965;SDS011;11649;48.090;9.754;2024-03-22T10:48:03;4.45;;;3.10;;
22965;SDS011;11649;48.090;9.754;2024-03-22T10:50:40;4.13;;;3.13;;
22965;SDS011;11649;48.090;9.754;2024-03-22T10:53:11;6.55;;;3.17;;
22965;SDS011;11649;48.090;9.754;2024-03-22T10:55:49;6.22;;;3.42;;
22965;SDS011;11649;48.090;9.754;2024-03-22T10:58:18;5.80;;;3.10;;
22965;SDS011;11649;48.090;9.754;2024-03-22T11:00:46;4.22;;;3.17;;
22965;SDS011;11649;48.090;9.754;2024-03-22T11:03:12;4.65;;;2.80;;
22965;SDS011;11649;48.090;9.754;2024-03-22T11:05:48;3.28;;;2.35;;
22965;SDS011;11649;48.090;9.754;2024-03-22T11:10:52;3.97;;;2.65;;
22965;SDS011;11649;48.090;9.754;2024-03-22T11:13:19;3.55;;;2.20;;
22965;SDS011;11649;48.090;9.754;2024-03-22T11:15:49;5.18;;;2.85;;
22965;SDS011;11649;48.090;9.754;2024-03-22T11:18:16;4.63;;;2.47;;
22965;SDS011;11649;48.090;9.754;2024-03-22T11:20:42;3.67;;;2.35;;
22965;SDS011;11649;48.090;9.754;2024-03-22T11:23:10;4.45;;;2.33;;
22965;SDS011;11649;48.090;9.754;2024-03-22T11:25:36;3.22;;;1.92;;
22965;SDS011;11649;48.090;9.754;2024-03-22T11:28:02;3.72;;;2.22;;
22965;SDS011;11649;48.090;9.754;2024-03-22T11:30:28;3.00;;;2.10;;
22965;SDS011;11649;48.090;9.754;2024-03-22T11:32:55;4.18;;;2.28;;
22965;SDS011;11649;48.090;9.754;2024-03-22T11:35:21;2.83;;;2.00;;
22965;SDS011;11649;48.090;9.754;2024-03-22T11:37:49;4.75;;;2.10;;
22965;SDS011;11649;48.090;9.754;2024-03-22T11:40:16;3.13;;;2.10;;
22965;SDS011;11649;48.090;9.754;2024-03-22T11:42:43;2.67;;;1.83;;
22965;SDS011;11649;48.090;9.754;2024-03-22T11:45:13;4.10;;;1.70;;
22965;SDS011;11649;48.090;9.754;2024-03-22T11:47:41;3.88;;;2.10;;
22965;SDS011;11649;48.090;9.754;2024-03-22T11:50:07;2.97;;;2.38;;
22965;SDS011;11649;48.090;9.754;2024-03-22T11:52:34;3.60;;;2.03;;
22965;SDS011;11649;48.090;9.754;2024-03-22T11:55:00;4.43;;;2.25;;
22965;SDS011;11649;48.090;9.754;2024-03-22T11:57:27;3.42;;;1.90;;
22965;SDS011;11649;48.090;9.754;2024-03-22T11:59:58;6.25;;;1.98;;
22965;SDS011;11649;48.090;9.754;2024-03-22T12:02:25;4.20;;;2.20;;
22965;SDS011;11649;48.090;9.754;2024-03-22T12:04:51;5.03;;;2.05;;
22965;SDS011;11649;48.090;9.754;2024-03-22T12:07:17;3.83;;;1.90;;
22965;SDS011;11649;48.090;9.754;2024-03-22T12:09:43;4.80;;;1.90;;
22965;SDS011;11649;48.090;9.754;2024-03-22T12:12:10;3.15;;;1.77;;
22965;SDS011;11649;48.090;9.754;2024-03-22T12:14:37;2.63;;;1.50;;
22965;SDS011;11649;48.090;9.754;2024-03-22T12:17:06;3.85;;;1.50;;
22965;SDS011;11649;48.090;9.754;2024-03-22T12:19:33;7.15;;;1.58;;
22965;SDS011;11649;48.090;9.754;2024-03-22T12:21:59;1.98;;;1.20;;
22965;SDS011;11649;48.090;9.754;2024-03-22T12:24:25;2.83;;;1.73;;
22965;SDS011;11649;48.090;9.754;2024-03-22T12:26:55;6.10;;;2.00;;
22965;SDS011;11649;48.090;9.754;2024-03-22T12:29:21;2.10;;;1.40;;
22965;SDS011;11649;48.090;9.754;2024-03-22T12:31:47;2.05;;;1.50;;
22965;SDS011;11649;48.090;9.754;2024-03-22T12:34:13;2.30;;;1.30;;
22965;SDS011;11649;48.090;9.754;2024-03-22T12:36:40;1.83;;;1.60;;
22965;SDS011;11649;48.090;9.754;2024-03-22T12:39:05;3.08;;;1.80;;
22965;SDS011;11649;48.090;9.754;2024-03-22T12:41:31;2.33;;;1.67;;
22965;SDS011;11649;48.090;9.754;2024-03-22T12:43:58;4.60;;;1.77;;
22965;SDS011;11649;48.090;9.754;2024-03-22T12:46:24;2.22;;;1.63;;
22965;SDS011;11649;48.090;9.754;2024-03-22T12:48:51;3.78;;;1.60;;
22965;SDS011;11649;48.090;9.754;2024-03-22T12:51:17;2.88;;;1.80;;
22965;SDS011;11649;48.090;9.754;2024-03-22T12:53:43;4.32;;;2.20;;
22965;SDS011;11649;48.090;9.754;2024-03-22T12:56:10;4.80;;;1.90;;
22965;SDS011;11649;48.090;9.754;2024-03-22T12:58:37;2.90;;;1.70;;
22965;SDS011;11649;48.090;9.754;2024-03-22T13:01:04;2.85;;;1.55;;
22965;SDS011;11649;48.090;9.754;2024-03-22T13:03:32;3.00;;;1.70;;
22965;SDS011;11649;48.090;9.754;2024-03-22T13:05:58;2.95;;;1.67;;
22965;SDS011;11649;48.090;9.754;2024-03-22T13:08:24;1.83;;;1.60;;
22965;SDS011;11649;48.090;9.754;2024-03-22T13:10:49;2.28;;;1.55;;
22965;SDS011;11649;48.090;9.754;2024-03-22T13:13:17;3.95;;;1.58;;
22965;SDS011;11649;48.090;9.754;2024-03-22T13:15:43;4.45;;;1.90;;
22965;SDS011;11649;48.090;9.754;2024-03-22T13:18:09;4.13;;;1.70;;
22965;SDS011;11649;48.090;9.754;2024-03-22T13:20:35;2.47;;;1.80;;
22965;SDS011;11649;48.090;9.754;2024-03-22T13:23:04;3.70;;;1.70;;
22965;SDS011;11649;48.090;9.754;2024-03-22T13:25:30;3.22;;;1.80;;
22965;SDS011;11649;48.090;9.754;2024-03-22T13:28:02;3.90;;;2.00;;
22965;SDS011;11649;48.090;9.754;2024-03-22T13:30:33;3.47;;;1.92;;
22965;SDS011;11649;48.090;9.754;2024-03-22T13:33:00;3.47;;;1.55;;
22965;SDS011;11649;48.090;9.754;2024-03-22T13:35:26;4.50;;;1.83;;
22965;SDS011;11649;48.090;9.754;2024-03-22T13:37:52;3.28;;;1.90;;
22965;SDS011;11649;48.090;9.754;2024-03-22T13:40:20;2.80;;;2.10;;
22965;SDS011;11649;48.090;9.754;2024-03-22T13:42:52;2.50;;;2.00;;
22965;SDS011;11649;48.090;9.754;2024-03-22T13:45:21;6.35;;;1.95;;
22965;SDS011;11649;48.090;9.754;2024-03-22T13:47:47;2.45;;;2.00;;
22965;SDS011;11649;48.090;9.754;2024-03-22T13:50:13;2.67;;;1.60;;
22965;SDS011;11649;48.090;9.754;2024-03-22T13:52:42;2.80;;;1.90;;
22965;SDS011;11649;48.090;9.754;2024-03-22T13:55:13;3.50;;;2.03;;
22965;SDS011;11649;48.090;9.754;2024-03-22T13:57:47;5.18;;;1.77;;
22965;SDS011;11649;48.090;9.754;2024-03-22T14:00:13;4.55;;;1.67;;
22965;SDS011;11649;48.090;9.754;2024-03-22T14:02:40;5.90;;;1.80;;
22965;SDS011;11649;48.090;9.754;2024-03-22T14:05:05;3.42;;;1.80;;
22965;SDS011;11649;48.090;9.754;2024-03-22T14:07:35;2.97;;;1.45;;
22965;SDS011;11649;48.090;9.754;2024-03-22T14:10:05;2.78;;;1.58;;
22965;SDS011;11649;48.090;9.754;2024-03-22T14:15:18;3.58;;;1.63;;
22965;SDS011;11649;48.090;9.754;2024-03-22T14:17:44;2.50;;;1.90;;
22965;SDS011;11649;48.090;9.754;2024-03-22T14:20:15;2.45;;;1.90;;
22965;SDS011;11649;48.090;9.754;2024-03-22T14:22:41;4.38;;;1.92;;
22965;SDS011;11649;48.090;9.754;2024-03-22T14:25:08;2.85;;;1.95;;
22965;SDS011;11649;48.090;9.754;2024-03-22T14:27:34;5.15;;;1.90;;
22965;SDS011;11649;48.090;9.754;2024-03-22T14:30:01;4.18;;;2.03;;
22965;SDS011;11649;48.090;9.754;2024-03-22T14:32:33;3.97;;;1.83;;
22965;SDS011;11649;48.090;9.754;2024-03-22T14:35:00;2.60;;;1.73;;
22965;SDS011;11649;48.090;9.754;2024-03-22T14:37:26;5.25;;;2.08;;
22965;SDS011;11649;48.090;9.754;2024-03-22T14:39:52;8.15;;;2.45;;
22965;SDS011;11649;48.090;9.754;2024-03-22T14:42:34;5.03;;;1.83;;
22965;SDS011;11649;48.090;9.754;2024-03-22T14:45:00;2.22;;;1.90;;
22965;SDS011;11649;48.090;9.754;2024-03-22T14:47:27;2.45;;;1.65;;
22965;SDS011;11649;48.090;9.754;2024-03-22T14:49:53;1.98;;;1.60;;
22965;SDS011;11649;48.090;9.754;2024-03-22T14:52:19;4.88;;;2.20;;
22965;SDS011;11649;48.090;9.754;2024-03-22T14:54:46;3.17;;;2.25;;
22965;SDS011;11649;48.090;9.754;2024-03-22T14:57:16;6.20;;;2.10;;
22965;SDS011;11649;48.090;9.754;2024-03-22T15:00:23;2.63;;;2.05;;
22965;SDS011;11649;48.090;9.754;2024-03-22T15:02:54;2.13;;;1.73;;
22965;SDS011;11649;48.090;9.754;2024-03-22T15:05:23;2.72;;;1.95;;
22965;SDS011;11649;48.090;9.754;2024-03-22T15:07:50;7.47;;;2.60;;
22965;SDS011;11649;48.090;9.754;2024-03-22T15:10:26;2.88;;;2.40;;
22965;SDS011;11649;48.090;9.754;2024-03-22T15:13:11;3.95;;;2.05;;
22965;SDS011;11649;48.090;9.754;2024-03-22T15:18:47;3.50;;;2.42;;
22965;SDS011;11649;48.090;9.754;2024-03-22T15:21:21;3.05;;;2.30;;
22965;SDS011;11649;48.090;9.754;2024-03-22T15:23:47;5.20;;;2.20;;
22965;SDS011;11649;48.090;9.754;2024-03-22T15:26:19;5.53;;;2.10;;
22965;SDS011;11649;48.090;9.754;2024-03-22T15:31:59;5.45;;;2.33;;
22965;SDS011;11649;48.090;9.754;2024-03-22T15:52:59;5.22;;;2.92;;
22965;SDS011;11649;48.090;9.754;2024-03-22T16:35:40;3.75;;;2.70;;
22965;SDS011;11649;48.090;9.754;2024-03-22T16:38:05;3.40;;;2.20;;
22965;SDS011;11649;48.090;9.754;2024-03-22T16:40:31;3.05;;;2.35;;
22965;SDS011;11649;48.090;9.754;2024-03-22T16:42:57;5.78;;;2.40;;
22965;SDS011;11649;48.090;9.754;2024-03-22T16:45:23;4.72;;;3.05;;
22965;SDS011;11649;48.090;9.754;2024-03-22T16:47:52;4.53;;;2.38;;
22965;SDS011;11649;48.090;9.754;2024-03-22T16:50:18;3.45;;;2.50;;
22965;SDS011;11649;48.090;9.754;2024-03-22T16:52:44;3.80;;;2.78;;
22965;SDS011;11649;48.090;9.754;2024-03-22T16:55:10;8.32;;;2.92;;
22965;SDS011;11649;48.090;9.754;2024-03-22T16:57:38;5.63;;;3.00;;
22965;SDS011;11649;48.090;9.754;2024-03-22T17:00:07;3.00;;;2.20;;
22965;SDS011;11649;48.090;9.754;2024-03-22T17:02:34;5.30;;;3.08;;
22965;SDS011;11649;48.090;9.754;2024-03-22T17:05:00;5.72;;;2.63;;
22965;SDS011;11649;48.090;9.754;2024-03-22T17:07:26;10.02;;;3.53;;
22965;SDS011;11649;48.090;9.754;2024-03-22T17:09:53;4.25;;;3.08;;
22965;SDS011;11649;48.090;9.754;2024-03-22T17:12:19;5.68;;;3.75;;
22965;SDS011;11649;48.090;9.754;2024-03-22T17:14:45;5.78;;;3.45;;
22965;SDS011;11649;48.090;9.754;2024-03-22T17:17:11;6.70;;;4.68;;
22965;SDS011;11649;48.090;9.754;2024-03-22T17:19:37;6.68;;;5.53;;
22965;SDS011;11649;48.090;9.754;2024-03-22T17:22:05;8.02;;;5.30;;
22965;SDS011;11649;48.090;9.754;2024-03-22T17:24:31;7.50;;;4.72;;